createdAt,value
2018-05-06T00:01:55.888Z,16.47
2018-05-06T00:04:23.344Z,15.20
2018-05-06T00:06:50.793Z,16.83
2018-05-06T00:09:18.245Z,18.13
2018-05-06T00:11:45.704Z,16.93
2018-05-06T00:14:13.172Z,19.47
2018-05-06T00:16:40.641Z,15.73
2018-05-06T00:19:08.085Z,16.47
2018-05-06T00:21:35.548Z,18.07
2018-05-06T00:24:03.030Z,16.07
2018-05-06T00:26:30.496Z,17.97
2018-05-06T00:28:57.982Z,17.00
2018-05-06T00:31:25.447Z,16.57
2018-05-06T00:33:52.895Z,17.00
2018-05-06T00:36:20.400Z,17.20
2018-05-06T00:38:47.832Z,17.33
2018-05-06T00:41:15.281Z,15.23
2018-05-06T00:43:42.744Z,14.23
2018-05-06T00:46:10.181Z,15.97
2018-05-06T00:48:37.634Z,15.20
2018-05-06T00:51:05.496Z,16.47
2018-05-06T00:53:32.960Z,17.00
2018-05-06T00:56:00.434Z,18.77
2018-05-06T00:58:27.861Z,17.20
2018-05-06T01:00:55.365Z,16.77
2018-05-06T01:03:22.804Z,14.00
2018-05-06T01:05:50.265Z,13.30
2018-05-06T01:08:17.712Z,16.03
2018-05-06T01:10:45.181Z,19.77
2018-05-06T01:13:12.639Z,16.70
2018-05-06T01:15:40.096Z,19.93
2018-05-06T01:18:07.541Z,15.77
2018-05-06T01:20:35.010Z,14.50
2018-05-06T01:23:02.452Z,12.30
2018-05-06T01:25:29.909Z,16.33
2018-05-06T01:27:57.402Z,15.43
2018-05-06T01:30:24.856Z,17.13
2018-05-06T01:32:52.337Z,18.60
2018-05-06T01:35:20.558Z,18.07
2018-05-06T01:37:48.051Z,14.43
2018-05-06T01:40:15.505Z,14.93
2018-05-06T01:42:42.965Z,22.93
2018-05-06T01:45:10.409Z,16.53
2018-05-06T01:47:37.866Z,15.70
2018-05-06T01:50:05.309Z,16.27
2018-05-06T01:52:32.772Z,15.70
2018-05-06T01:55:00.221Z,16.50
2018-05-06T01:57:27.675Z,16.40
2018-05-06T01:59:55.145Z,17.30
2018-05-06T02:02:22.593Z,16.00
2018-05-06T02:04:50.058Z,17.97
2018-05-06T02:07:17.501Z,16.70
2018-05-06T02:09:44.972Z,20.73
2018-05-06T02:12:12.420Z,16.43
2018-05-06T02:14:39.887Z,18.63
2018-05-06T02:17:07.356Z,18.10
2018-05-06T02:19:34.840Z,17.43
2018-05-06T02:22:03.067Z,16.87
2018-05-06T02:24:30.513Z,18.73
2018-05-06T02:26:57.985Z,16.27
2018-05-06T02:29:25.440Z,15.20
2018-05-06T02:31:52.931Z,16.17
2018-05-06T02:34:20.872Z,18.03
2018-05-06T02:36:48.357Z,17.90
2018-05-06T02:39:15.853Z,19.73
2018-05-06T02:41:43.313Z,18.17
2018-05-06T02:44:10.796Z,17.53
2018-05-06T02:46:38.271Z,18.07
2018-05-06T02:49:05.804Z,15.13
2018-05-06T02:51:33.256Z,14.53
2018-05-06T02:54:00.737Z,22.33
2018-05-06T02:56:28.196Z,20.90
2018-05-06T02:58:56.431Z,15.27
2018-05-06T03:01:23.908Z,18.70
2018-05-06T03:03:51.397Z,14.33
2018-05-06T03:06:18.881Z,19.73
2018-05-06T03:08:46.364Z,15.77
2018-05-06T03:11:13.821Z,16.80
2018-05-06T03:13:41.300Z,16.03
2018-05-06T03:16:08.756Z,14.40
2018-05-06T03:18:36.241Z,17.93
2018-05-06T03:21:03.694Z,16.80
2018-05-06T03:23:31.173Z,17.77
2018-05-06T03:25:58.667Z,16.57
2018-05-06T03:28:26.124Z,17.53
2018-05-06T03:30:53.588Z,17.27
2018-05-06T03:33:21.069Z,18.53
2018-05-06T03:35:48.556Z,16.60
2018-05-06T03:38:16.017Z,17.30
2018-05-06T03:40:43.472Z,13.47
2018-05-06T03:43:10.962Z,17.40
2018-05-06T03:45:38.419Z,15.07
2018-05-06T03:48:06.684Z,16.90
2018-05-06T03:50:34.956Z,17.00
2018-05-06T03:53:02.452Z,13.40
2018-05-06T03:55:29.973Z,15.63
2018-05-06T03:58:09.983Z,15.73
2018-05-06T04:00:41.540Z,14.47
2018-05-06T04:03:09.000Z,15.30
2018-05-06T04:05:38.005Z,18.07
2018-05-06T04:08:05.461Z,14.97
2018-05-06T04:10:32.934Z,16.10
2018-05-06T04:13:01.169Z,17.27
2018-05-06T04:15:28.653Z,17.83
2018-05-06T04:17:56.120Z,17.53
2018-05-06T04:20:23.592Z,16.53
2018-05-06T04:22:51.843Z,17.47
2018-05-06T04:25:19.312Z,15.53
2018-05-06T04:27:47.632Z,13.17
2018-05-06T04:30:15.968Z,13.90
2018-05-06T04:32:44.305Z,13.97
2018-05-06T04:35:11.765Z,18.30
2018-05-06T04:37:39.260Z,13.53
2018-05-06T04:40:07.488Z,15.03
2018-05-06T04:42:34.985Z,16.13
2018-05-06T04:45:02.448Z,16.07
2018-05-06T04:47:30.732Z,15.50
2018-05-06T04:49:58.190Z,12.70
2018-05-06T04:52:26.440Z,13.00
2018-05-06T04:54:53.907Z,16.60
2018-05-06T04:57:21.401Z,16.07
2018-05-06T04:59:48.865Z,14.67
2018-05-06T05:02:16.305Z,14.53
2018-05-06T05:04:43.788Z,14.73
2018-05-06T05:07:11.254Z,13.17
2018-05-06T05:09:38.796Z,15.20
2018-05-06T05:12:07.005Z,16.37
2018-05-06T05:14:34.476Z,14.70
2018-05-06T05:17:01.950Z,12.30
2018-05-06T05:19:30.208Z,15.30
2018-05-06T05:21:57.665Z,13.83
2018-05-06T05:24:25.168Z,11.87
2018-05-06T05:26:52.600Z,13.23
2018-05-06T05:29:20.168Z,13.53
2018-05-06T05:31:47.624Z,10.90
2018-05-06T05:34:15.101Z,12.90
2018-05-06T05:36:42.579Z,8.93
2018-05-06T05:39:10.113Z,12.50
2018-05-06T05:41:37.592Z,14.13
2018-05-06T05:44:05.053Z,12.47
2018-05-06T05:46:33.303Z,8.33
2018-05-06T05:49:00.753Z,9.00
2018-05-06T05:51:28.197Z,9.03
2018-05-06T05:53:55.676Z,10.77
2018-05-06T05:56:23.156Z,11.43
2018-05-06T05:58:50.636Z,6.37
2018-05-06T06:01:18.113Z,9.93
2018-05-06T06:03:46.324Z,8.23
2018-05-06T06:06:13.804Z,8.63
2018-05-06T06:08:41.300Z,8.40
2018-05-06T06:11:09.590Z,7.87
2018-05-06T06:13:37.856Z,8.47
2018-05-06T06:16:06.067Z,6.30
2018-05-06T06:18:33.564Z,6.33
2018-05-06T06:21:01.048Z,5.33
2018-05-06T06:23:28.514Z,6.20
2018-05-06T06:25:55.960Z,6.70
2018-05-06T06:28:24.202Z,6.60
2018-05-06T06:30:51.676Z,4.57
2018-05-06T06:33:19.168Z,3.10
2018-05-06T06:35:46.625Z,5.53
2018-05-06T06:38:14.140Z,5.43
2018-05-06T06:40:41.593Z,4.13
2018-05-06T06:43:09.056Z,4.53
2018-05-06T06:45:36.538Z,7.13
2018-05-06T06:48:04.072Z,4.27
2018-05-06T06:50:32.204Z,4.90
2018-05-06T06:52:59.711Z,3.90
2018-05-06T06:55:27.184Z,3.77
2018-05-06T06:57:55.429Z,3.70
2018-05-06T07:00:22.900Z,3.93
2018-05-06T07:02:50.356Z,4.20
2018-05-06T07:05:17.843Z,3.30
2018-05-06T07:07:45.325Z,5.10
2018-05-06T07:10:12.780Z,4.70
2018-05-06T07:12:40.280Z,3.47
2018-05-06T07:15:07.735Z,4.13
2018-05-06T07:17:35.204Z,3.40
2018-05-06T07:20:03.448Z,4.37
2018-05-06T07:22:30.919Z,5.77
2018-05-06T07:24:58.384Z,6.40
2018-05-06T07:27:25.833Z,6.53
2018-05-06T07:29:53.338Z,4.03
2018-05-06T07:32:21.536Z,4.83
2018-05-06T07:34:48.986Z,3.53
2018-05-06T07:37:16.457Z,7.17
2018-05-06T07:39:43.908Z,5.73
2018-05-06T07:42:11.400Z,3.20
2018-05-06T07:44:38.860Z,3.47
2018-05-06T07:47:06.325Z,3.40
2018-05-06T07:49:33.792Z,5.57
2018-05-06T07:52:02.020Z,2.83
2018-05-06T07:54:29.504Z,4.83
2018-05-06T07:56:56.980Z,4.20
2018-05-06T07:59:25.232Z,6.97
2018-05-06T08:01:52.676Z,4.33
2018-05-06T08:04:20.151Z,4.33
2018-05-06T08:06:47.616Z,3.07
2018-05-06T08:09:15.067Z,5.60
2018-05-06T08:11:42.548Z,3.17
2018-05-06T08:14:10.012Z,3.10
2018-05-06T08:16:37.524Z,3.70
2018-05-06T08:19:04.948Z,4.50
2018-05-06T08:21:32.396Z,3.00
2018-05-06T08:23:59.872Z,5.83
2018-05-06T08:26:28.135Z,3.73
2018-05-06T08:28:55.604Z,2.73
2018-05-06T08:31:23.078Z,3.73
2018-05-06T08:33:50.557Z,2.90
2018-05-06T08:36:18.000Z,5.63
2018-05-06T08:38:45.477Z,4.03
2018-05-06T08:41:13.713Z,5.77
2018-05-06T08:43:41.193Z,3.90
2018-05-06T08:46:08.672Z,2.90
2018-05-06T08:48:36.892Z,6.73
2018-05-06T08:51:04.344Z,3.07
2018-05-06T08:53:31.827Z,5.40
2018-05-06T08:56:00.173Z,8.07
2018-05-06T08:58:27.620Z,38.70
2018-05-06T09:00:55.116Z,2.10
2018-05-06T09:03:22.660Z,3.00
2018-05-06T09:05:50.109Z,3.07
2018-05-06T09:08:17.591Z,2.40
2018-05-06T09:10:45.045Z,5.10
2018-05-06T09:13:12.517Z,2.40
2018-05-06T09:15:40.006Z,5.62
2018-05-06T09:18:08.224Z,2.58
2018-05-06T09:20:35.708Z,4.10
2018-05-06T09:23:03.161Z,1.60
2018-05-06T09:25:30.725Z,4.40
2018-05-06T09:27:58.152Z,3.70
2018-05-06T09:30:25.645Z,2.05
2018-05-06T09:32:53.093Z,1.52
2018-05-06T09:35:20.580Z,2.00
2018-05-06T09:37:48.840Z,3.08
2018-05-06T09:40:16.269Z,2.87
2018-05-06T09:42:43.737Z,1.58
2018-05-06T09:45:11.288Z,2.35
2018-05-06T09:47:38.826Z,1.45
2018-05-06T09:50:06.273Z,2.05
2018-05-06T09:52:33.731Z,2.12
2018-05-06T09:55:01.214Z,1.30
2018-05-06T09:57:28.681Z,1.67
2018-05-06T09:59:56.896Z,1.20
2018-05-06T10:02:24.369Z,1.45
2018-05-06T10:04:52.682Z,4.90
2018-05-06T10:07:20.333Z,1.58
2018-05-06T10:09:47.805Z,3.03
2018-05-06T10:12:15.308Z,2.83
2018-05-06T10:14:43.529Z,2.28
2018-05-06T10:17:10.996Z,1.40
2018-05-06T10:19:38.473Z,1.45
2018-05-06T10:22:05.959Z,1.27
2018-05-06T10:24:33.417Z,1.45
2018-05-06T10:27:01.672Z,1.27
2018-05-06T10:29:29.152Z,1.65
2018-05-06T10:31:58.315Z,2.40
2018-05-06T10:34:25.782Z,7.67
2018-05-06T10:36:53.312Z,1.73
2018-05-06T10:39:20.784Z,2.03
2018-05-06T10:41:48.239Z,2.30
2018-05-06T10:44:15.758Z,1.00
2018-05-06T10:46:43.196Z,1.25
2018-05-06T10:49:10.732Z,2.83
2018-05-06T10:51:38.137Z,2.00
2018-05-06T10:54:05.589Z,1.52
2018-05-06T10:56:33.066Z,2.72
2018-05-06T10:59:01.292Z,1.67
2018-05-06T11:01:29.532Z,1.48
2018-05-06T11:03:57.053Z,2.33
2018-05-06T11:06:25.233Z,3.05
2018-05-06T11:08:52.705Z,2.28
2018-05-06T11:11:20.177Z,2.35
2018-05-06T11:13:47.674Z,2.65
2018-05-06T11:16:15.883Z,1.85
2018-05-06T11:18:43.447Z,5.25
2018-05-06T11:21:10.972Z,3.45
2018-05-06T11:23:38.431Z,2.45
2018-05-06T11:26:05.912Z,5.37
2018-05-06T11:28:33.396Z,1.50
2018-05-06T11:31:00.844Z,2.37
2018-05-06T11:33:28.373Z,1.70
2018-05-06T11:35:55.770Z,3.83
2018-05-06T11:38:23.228Z,2.03
2018-05-06T11:40:50.716Z,1.35
2018-05-06T11:43:18.936Z,2.37
2018-05-06T11:45:46.396Z,3.00
2018-05-06T11:48:13.888Z,1.67
2018-05-06T11:50:41.384Z,2.25
2018-05-06T11:53:08.864Z,1.12
2018-05-06T11:55:36.381Z,1.30
2018-05-06T11:58:04.616Z,2.33
2018-05-06T12:00:32.094Z,1.33
2018-05-06T12:02:59.594Z,2.08
2018-05-06T12:05:27.073Z,3.05
2018-05-06T12:07:54.548Z,1.52
2018-05-06T12:10:22.001Z,1.40
2018-05-06T12:12:49.485Z,2.00
2018-05-06T12:15:16.996Z,1.70
2018-05-06T12:17:44.465Z,1.60
2018-05-06T12:20:11.920Z,1.40
2018-05-06T12:22:39.416Z,1.45
2018-05-06T12:25:07.668Z,2.15
2018-05-06T12:27:35.141Z,1.50
2018-05-06T12:30:02.611Z,2.25
2018-05-06T12:32:30.917Z,2.05
2018-05-06T12:34:58.383Z,1.30
2018-05-06T12:37:25.841Z,2.05
2018-05-06T12:39:53.321Z,0.85
2018-05-06T12:42:20.817Z,1.50
2018-05-06T12:44:48.355Z,3.05
2018-05-06T12:47:15.844Z,1.33
2018-05-06T12:49:43.314Z,1.80
2018-05-06T12:52:10.768Z,1.80
2018-05-06T12:54:38.248Z,1.87
2018-05-06T12:57:05.736Z,2.10
2018-05-06T12:59:33.985Z,3.33
2018-05-06T13:02:01.466Z,3.08
2018-05-06T13:04:28.932Z,1.30
2018-05-06T13:06:56.416Z,2.65
2018-05-06T13:09:24.682Z,3.75
2018-05-06T13:11:52.217Z,2.78
2018-05-06T13:14:19.714Z,1.00
2018-05-06T13:16:47.936Z,2.40
2018-05-06T13:19:15.440Z,2.55
2018-05-06T13:21:43.721Z,1.60
2018-05-06T13:24:12.016Z,2.58
2018-05-06T13:26:39.452Z,2.97
2018-05-06T13:29:07.667Z,1.50
2018-05-06T13:31:35.173Z,1.42
2018-05-06T13:34:03.416Z,1.17
2018-05-06T13:36:31.668Z,12.18
2018-05-06T13:38:59.144Z,4.07
2018-05-06T13:41:26.651Z,3.62
2018-05-06T13:43:54.899Z,3.17
2018-05-06T13:46:22.397Z,1.30
2018-05-06T13:48:49.852Z,3.65
2018-05-06T13:51:17.366Z,2.83
2018-05-06T13:53:44.812Z,1.95
2018-05-06T13:56:12.316Z,2.85
2018-05-06T13:58:39.781Z,3.15
2018-05-06T14:01:07.387Z,2.45
2018-05-06T14:03:34.863Z,2.45
2018-05-06T14:06:02.321Z,8.65
2018-05-06T14:08:29.801Z,2.55
2018-05-06T14:10:58.033Z,2.15
2018-05-06T14:13:25.584Z,1.65
2018-05-06T14:15:53.073Z,3.83
2018-05-06T14:18:20.553Z,2.22
2018-05-06T14:20:48.796Z,2.55
2018-05-06T14:23:16.280Z,2.33
2018-05-06T14:25:43.740Z,3.45
2018-05-06T14:28:11.991Z,25.20
2018-05-06T14:30:39.472Z,106.37
2018-05-06T14:33:07.706Z,10.07
2018-05-06T14:35:35.180Z,3.30
2018-05-06T14:38:02.681Z,3.03
2018-05-06T14:40:30.199Z,3.10
2018-05-06T14:42:57.675Z,7.05
2018-05-06T14:45:25.936Z,24.60
2018-05-06T14:48:05.206Z,4.90
2018-05-06T14:50:32.685Z,4.90
2018-05-06T14:53:00.152Z,3.58
2018-05-06T14:55:27.640Z,5.30
2018-05-06T14:57:55.645Z,11.10
2018-05-06T15:00:23.147Z,5.33
2018-05-06T15:02:50.607Z,7.37
2018-05-06T15:05:18.113Z,5.77
2018-05-06T15:07:45.596Z,4.17
2018-05-06T15:10:13.070Z,2.53
2018-05-06T15:12:40.555Z,10.17
2018-05-06T15:15:08.022Z,4.87
2018-05-06T15:17:35.768Z,3.10
2018-05-06T15:20:03.236Z,3.77
2018-05-06T15:22:30.708Z,4.80
2018-05-06T15:24:58.193Z,3.27
2018-05-06T15:27:25.681Z,2.50
2018-05-06T15:29:53.144Z,3.77
2018-05-06T15:32:20.604Z,4.80
2018-05-06T15:34:48.080Z,6.70
2018-05-06T15:37:15.544Z,4.47
2018-05-06T15:39:43.792Z,3.30
2018-05-06T15:42:12.022Z,3.53
2018-05-06T15:44:39.523Z,3.47
2018-05-06T15:47:07.000Z,2.83
2018-05-06T15:49:34.458Z,2.83
2018-05-06T15:52:01.953Z,3.40
2018-05-06T15:54:29.408Z,2.00
2018-05-06T15:56:56.916Z,2.37
2018-05-06T15:59:24.395Z,3.17
2018-05-06T16:02:04.452Z,2.30
2018-05-06T16:04:31.936Z,4.27
2018-05-06T16:06:59.417Z,4.23
2018-05-06T16:09:26.876Z,2.27
2018-05-06T16:11:55.161Z,6.03
2018-05-06T16:14:22.609Z,3.20
2018-05-06T16:16:50.067Z,1.80
2018-05-06T16:19:17.553Z,5.67
2018-05-06T16:21:45.039Z,3.00
2018-05-06T16:24:13.288Z,13.60
2018-05-06T16:26:40.750Z,6.13
2018-05-06T16:29:08.228Z,2.97
2018-05-06T16:31:36.444Z,4.97
2018-05-06T16:34:03.936Z,4.93
2018-05-06T16:36:31.393Z,13.30
2018-05-06T16:38:58.872Z,3.23
2018-05-06T16:41:27.109Z,3.97
2018-05-06T16:43:54.560Z,5.07
2018-05-06T16:46:22.044Z,5.07
2018-05-06T16:48:49.499Z,4.73
2018-05-06T16:51:16.976Z,6.57
2018-05-06T16:53:45.200Z,2.53
2018-05-06T16:56:12.706Z,2.87
2018-05-06T16:58:40.928Z,2.43
2018-05-06T17:01:08.421Z,4.20
2018-05-06T17:03:35.886Z,4.17
2018-05-06T17:06:03.360Z,4.53
2018-05-06T17:08:31.612Z,3.77
2018-05-06T17:10:59.073Z,5.10
2018-05-06T17:13:26.557Z,2.30
2018-05-06T17:15:54.036Z,3.53
2018-05-06T17:18:21.512Z,3.70
2018-05-06T17:20:48.994Z,2.67
2018-05-06T17:23:16.460Z,4.27
2018-05-06T17:25:44.684Z,2.73
2018-05-06T17:28:12.193Z,3.97
2018-05-06T17:30:39.674Z,2.50
2018-05-06T17:33:07.157Z,3.63
2018-05-06T17:35:34.621Z,6.83
2018-05-06T17:38:02.103Z,6.13
2018-05-06T17:40:29.580Z,6.83
2018-05-06T17:42:57.088Z,5.90
2018-05-06T17:45:24.631Z,3.97
2018-05-06T17:47:52.079Z,6.90
2018-05-06T17:50:19.565Z,5.33
2018-05-06T17:52:47.036Z,5.17
2018-05-06T17:55:14.523Z,6.37
2018-05-06T17:57:42.951Z,6.07
2018-05-06T18:00:10.417Z,3.37
2018-05-06T18:02:37.875Z,6.60
2018-05-06T18:05:05.365Z,3.40
2018-05-06T18:07:32.899Z,4.80
2018-05-06T18:10:00.343Z,18.47
2018-05-06T18:12:27.820Z,7.27
2018-05-06T18:14:55.310Z,4.87
2018-05-06T18:17:22.766Z,6.40
2018-05-06T18:19:50.273Z,6.80
2018-05-06T18:22:17.731Z,4.80
2018-05-06T18:24:45.265Z,5.47
2018-05-06T18:27:12.669Z,4.63
2018-05-06T18:29:40.120Z,7.07
2018-05-06T18:32:07.648Z,7.27
2018-05-06T18:34:35.053Z,5.30
2018-05-06T18:37:02.537Z,4.40
2018-05-06T18:39:30.761Z,3.87
2018-05-06T18:41:58.215Z,4.53
2018-05-06T18:44:26.464Z,7.77
2018-05-06T18:46:54.007Z,6.03
2018-05-06T18:49:21.419Z,7.80
2018-05-06T18:51:48.876Z,8.97
2018-05-06T18:54:17.136Z,6.90
2018-05-06T18:56:44.605Z,5.20
2018-05-06T18:59:12.072Z,6.53
2018-05-06T19:01:39.541Z,7.47
2018-05-06T19:04:07.027Z,5.23
2018-05-06T19:06:35.260Z,4.40
2018-05-06T19:09:02.761Z,7.83
2018-05-06T19:11:30.220Z,5.30
2018-05-06T19:13:57.676Z,4.47
2018-05-06T19:16:25.239Z,6.10
2018-05-06T19:18:52.636Z,6.83
2018-05-06T19:21:20.087Z,5.93
2018-05-06T19:23:47.553Z,9.77
2018-05-06T19:26:15.055Z,6.27
2018-05-06T19:28:43.297Z,5.57
2018-05-06T19:31:10.769Z,5.77
2018-05-06T19:33:38.273Z,5.90
2018-05-06T19:36:05.783Z,7.67
2018-05-06T19:38:33.240Z,5.60
2018-05-06T19:41:00.728Z,6.60
2018-05-06T19:43:28.184Z,5.10
2018-05-06T19:45:55.645Z,5.87
2018-05-06T19:48:24.084Z,5.50
2018-05-06T19:50:51.545Z,6.23
2018-05-06T19:53:19.031Z,5.40
2018-05-06T19:55:46.477Z,7.90
2018-05-06T19:58:14.725Z,3.70
2018-05-06T20:00:42.227Z,8.17
2018-05-06T20:03:09.691Z,9.63
2018-05-06T20:05:37.156Z,7.77
2018-05-06T20:08:04.646Z,6.50
2018-05-06T20:10:32.101Z,7.07
2018-05-06T20:12:59.582Z,5.27
2018-05-06T20:15:27.048Z,6.77
2018-05-06T20:17:55.294Z,6.43
2018-05-06T20:20:22.772Z,4.77
2018-05-06T20:22:50.244Z,6.47
2018-05-06T20:25:18.467Z,5.60
2018-05-06T20:27:45.952Z,7.43
2018-05-06T20:30:14.225Z,10.27
2018-05-06T20:32:41.681Z,5.73
2018-05-06T20:35:09.916Z,8.07
2018-05-06T20:37:37.416Z,5.93
2018-05-06T20:40:04.886Z,7.47
2018-05-06T20:42:32.383Z,7.63
2018-05-06T20:44:59.844Z,7.37
2018-05-06T20:47:27.311Z,10.70
2018-05-06T20:49:54.812Z,4.80
2018-05-06T20:52:22.331Z,6.97
2018-05-06T20:54:49.800Z,8.90
2018-05-06T20:57:18.008Z,5.60
2018-05-06T20:59:47.581Z,6.83
2018-05-06T21:02:15.037Z,8.23
2018-05-06T21:04:42.540Z,5.80
2018-05-06T21:07:10.854Z,8.10
2018-05-06T21:09:41.008Z,4.63
2018-05-06T21:12:08.482Z,6.47
2018-05-06T21:14:35.920Z,7.67
2018-05-06T21:17:03.400Z,9.03
2018-05-06T21:19:31.640Z,11.23
2018-05-06T21:21:59.140Z,6.83
2018-05-06T21:24:27.411Z,7.63
2018-05-06T21:26:57.236Z,8.43
2018-05-06T21:29:26.997Z,4.97
2018-05-06T21:31:54.457Z,8.73
2018-05-06T21:34:21.932Z,9.97
2018-05-06T21:36:49.421Z,7.77
2018-05-06T21:39:17.624Z,5.90
2018-05-06T21:41:45.105Z,6.23
2018-05-06T21:44:12.560Z,7.43
2018-05-06T21:46:40.044Z,10.93
2018-05-06T21:49:08.274Z,10.50
2018-05-06T21:51:36.551Z,10.67
2018-05-06T21:54:04.017Z,8.50
2018-05-06T21:56:31.464Z,10.47
2018-05-06T21:59:00.569Z,8.87
2018-05-06T22:01:28.040Z,7.73
2018-05-06T22:03:55.496Z,8.87
2018-05-06T22:06:22.996Z,8.70
2018-05-06T22:08:50.547Z,9.40
2018-05-06T22:11:18.008Z,7.13
2018-05-06T22:13:46.249Z,11.00
2018-05-06T22:16:13.816Z,7.73
2018-05-06T22:18:41.264Z,9.20
2018-05-06T22:21:08.928Z,12.57
2018-05-06T22:23:36.399Z,8.57
2018-05-06T22:26:03.890Z,9.00
2018-05-06T22:28:31.381Z,9.03
2018-05-06T22:30:58.848Z,7.57
2018-05-06T22:33:26.304Z,6.20
2018-05-06T22:35:54.544Z,9.93
2018-05-06T22:38:22.033Z,6.80
2018-05-06T22:40:49.504Z,9.00
2018-05-06T22:43:16.998Z,9.67
2018-05-06T22:45:45.283Z,8.73
2018-05-06T22:48:12.785Z,10.87
2018-05-06T22:50:40.260Z,7.03
2018-05-06T22:53:07.746Z,14.90
2018-05-06T22:55:35.252Z,8.70
2018-05-06T22:58:02.708Z,7.47
2018-05-06T23:00:30.950Z,9.10
2018-05-06T23:02:58.446Z,8.93
2018-05-06T23:05:25.987Z,8.17
2018-05-06T23:07:53.447Z,10.00
2018-05-06T23:10:20.941Z,6.53
2018-05-06T23:12:48.395Z,7.63
2018-05-06T23:15:15.856Z,12.70
2018-05-06T23:17:43.333Z,12.30
2018-05-06T23:20:11.564Z,7.00
2018-05-06T23:22:39.048Z,11.63
2018-05-06T23:25:06.522Z,9.20
2018-05-06T23:27:33.988Z,8.17
2018-05-06T23:30:01.449Z,12.37
2018-05-06T23:32:28.960Z,10.97
2018-05-06T23:34:56.428Z,11.50
2018-05-06T23:37:23.891Z,9.27
2018-05-06T23:39:51.372Z,7.90
2018-05-06T23:42:18.820Z,8.73
2018-05-06T23:44:46.311Z,12.87
2018-05-06T23:47:13.885Z,11.70
2018-05-06T23:49:41.438Z,11.30
2018-05-06T23:52:08.872Z,9.90
2018-05-06T23:54:36.324Z,9.90
2018-05-06T23:57:03.800Z,12.93
2018-05-06T23:59:31.296Z,8.17
